OCN5ZT LGMK-EDDF
Flight info
| Callsign | OCN5ZT |
|---|---|
| Flight time | N/A |
| Altitude | 36000 |
| Route | VARIX L995 KEA UN132 ROPOX UM749 SKP UL617 MAKED DCT LONTA UL608 DOLEV DCT LURID DCT BEDOX DCT SIMBA DCT AKINI T161 DEBHI SPESA5C |
| Aircraft | A320/M-SDE3FGHIRWY/LB1 |
Departure
| Time | 2026-05-07 20:22 |
|---|---|
| Airport | Mykonos Island National Airport (LGMK) |
Arrival
| Time | N/A |
|---|---|
| Airport | Frankfurt Main Airport (EDDF) |
| Time | Latitude | Longitude | Altitude | Speed | Heading |
|---|---|---|---|---|---|
| 2026-05-07 20:00 | 37.43463 | 25.34656 | 407 ft | 0 kts | 251° |
| 2026-05-07 20:10 | 37.43466 | 25.34668 | 407 ft | 2 kts | 251° |
| 2026-05-07 20:10 | 37.43471 | 25.34689 | 407 ft | 2 kts | 251° |
| 2026-05-07 20:10 | 37.43477 | 25.34709 | 407 ft | 2 kts | 286° |
| 2026-05-07 20:11 | 37.43468 | 25.34725 | 408 ft | 1 kts | 352° |
| 2026-05-07 20:14 | 37.43476 | 25.34722 | 408 ft | 4 kts | 346° |
| 2026-05-07 20:14 | 37.43517 | 25.34706 | 408 ft | 6 kts | 342° |
| 2026-05-07 20:14 | 37.43570 | 25.34683 | 405 ft | 8 kts | 340° |
| 2026-05-07 20:14 | 37.43600 | 25.34673 | 408 ft | 0 kts | 354° |
| 2026-05-07 20:18 | 37.43601 | 25.34672 | 408 ft | 2 kts | 354° |
| 2026-05-07 20:18 | 37.43650 | 25.34697 | 409 ft | 13 kts | 31° |
| 2026-05-07 20:19 | 37.43727 | 25.34727 | 411 ft | 13 kts | 347° |
| 2026-05-07 20:19 | 37.43841 | 25.34676 | 411 ft | 21 kts | 340° |
| 2026-05-07 20:19 | 37.44000 | 25.34606 | 410 ft | 26 kts | 341° |
| 2026-05-07 20:19 | 37.44173 | 25.34531 | 407 ft | 21 kts | 340° |
| 2026-05-07 20:20 | 37.44262 | 25.34467 | 405 ft | 11 kts | 312° |
| 2026-05-07 20:20 | 37.44297 | 25.34470 | 401 ft | 4 kts | 112° |
| 2026-05-07 20:20 | 37.44285 | 25.34479 | 403 ft | 0 kts | 162° |
| 2026-05-07 20:20 | 37.44284 | 25.34480 | 403 ft | 0 kts | 160° |
| 2026-05-07 20:21 | 37.44276 | 25.34483 | 405 ft | 12 kts | 160° |
| 2026-05-07 20:21 | 37.43920 | 25.34641 | 412 ft | 92 kts | 160° |
| 2026-05-07 20:21 | 37.43117 | 25.34995 | 452 ft | 147 kts | 161° |
| 2026-05-07 20:22 | 37.42158 | 25.35406 | 1131 ft | 145 kts | 164° |
| 2026-05-07 20:22 | 37.41193 | 25.35824 | 1765 ft | 153 kts | 162° |
| 2026-05-07 20:22 | 37.40141 | 25.36284 | 2100 ft | 173 kts | 163° |
| 2026-05-07 20:22 | 37.38931 | 25.36822 | 2375 ft | 196 kts | 162° |
| 2026-05-07 20:23 | 37.37608 | 25.37419 | 2841 ft | 206 kts | 162° |
| 2026-05-07 20:23 | 37.36249 | 25.38030 | 3461 ft | 208 kts | 162° |
| 2026-05-07 20:23 | 37.34830 | 25.38268 | 4044 ft | 210 kts | 191° |
| 2026-05-07 20:23 | 37.33525 | 25.37445 | 4502 ft | 221 kts | 226° |
| 2026-05-07 20:24 | 37.32682 | 25.35760 | 4977 ft | 234 kts | 241° |
| 2026-05-07 20:24 | 37.31921 | 25.33938 | 5774 ft | 236 kts | 242° |
| 2026-05-07 20:24 | 37.31159 | 25.32103 | 6629 ft | 237 kts | 243° |
| 2026-05-07 20:24 | 37.30401 | 25.30285 | 7429 ft | 239 kts | 243° |
| 2026-05-07 20:25 | 37.29624 | 25.28434 | 8227 ft | 241 kts | 243° |
| 2026-05-07 20:25 | 37.28835 | 25.26569 | 9033 ft | 243 kts | 243° |
| 2026-05-07 20:25 | 37.28038 | 25.24687 | 9847 ft | 245 kts | 244° |
| 2026-05-07 20:25 | 37.27466 | 25.22677 | 10583 ft | 246 kts | 263° |
| 2026-05-07 20:26 | 37.27498 | 25.20522 | 11244 ft | 253 kts | 281° |
| 2026-05-07 20:26 | 37.28194 | 25.18398 | 11515 ft | 276 kts | 303° |
| 2026-05-07 20:26 | 37.29322 | 25.16377 | 12058 ft | 287 kts | 303° |
| 2026-05-07 20:26 | 37.30452 | 25.14333 | 12768 ft | 291 kts | 303° |
| 2026-05-07 20:27 | 37.31604 | 25.12230 | 13514 ft | 294 kts | 303° |
| 2026-05-07 20:27 | 37.32765 | 25.10099 | 14221 ft | 297 kts | 303° |
| 2026-05-07 20:27 | 37.33935 | 25.07942 | 14898 ft | 300 kts | 303° |
| 2026-05-07 20:27 | 37.35112 | 25.05773 | 15560 ft | 302 kts | 303° |
| 2026-05-07 20:28 | 37.36249 | 25.03545 | 16219 ft | 304 kts | 296° |
| 2026-05-07 20:28 | 37.37055 | 25.01043 | 16540 ft | 318 kts | 288° |
| 2026-05-07 20:28 | 37.37777 | 24.98324 | 16667 ft | 337 kts | 288° |
| 2026-05-07 20:28 | 37.38531 | 24.95447 | 16797 ft | 356 kts | 288° |
| 2026-05-07 20:29 | 37.39306 | 24.92479 | 17072 ft | 367 kts | 288° |
| 2026-05-07 20:29 | 37.40113 | 24.89406 | 17578 ft | 372 kts | 288° |
| 2026-05-07 20:29 | 37.40935 | 24.86305 | 18143 ft | 376 kts | 288° |
| 2026-05-07 20:29 | 37.41766 | 24.83177 | 18663 ft | 379 kts | 288° |
| 2026-05-07 20:30 | 37.42608 | 24.80021 | 19144 ft | 382 kts | 288° |
| 2026-05-07 20:30 | 37.43452 | 24.76841 | 19628 ft | 384 kts | 288° |
| 2026-05-07 20:30 | 37.44297 | 24.73639 | 20100 ft | 387 kts | 288° |
| 2026-05-07 20:30 | 37.45144 | 24.70413 | 20575 ft | 390 kts | 288° |
| 2026-05-07 20:31 | 37.45998 | 24.67159 | 21036 ft | 393 kts | 288° |
| 2026-05-07 20:31 | 37.46846 | 24.63929 | 21484 ft | 395 kts | 288° |
| 2026-05-07 20:31 | 37.47710 | 24.60633 | 21931 ft | 398 kts | 288° |
| 2026-05-07 20:31 | 37.48580 | 24.57310 | 22395 ft | 401 kts | 288° |
| 2026-05-07 20:32 | 37.49454 | 24.53969 | 22821 ft | 403 kts | 288° |
| 2026-05-07 20:32 | 37.50333 | 24.50602 | 23255 ft | 406 kts | 288° |
| 2026-05-07 20:32 | 37.51218 | 24.47212 | 23678 ft | 409 kts | 289° |
| 2026-05-07 20:32 | 37.52108 | 24.43800 | 24041 ft | 411 kts | 289° |
| 2026-05-07 20:33 | 37.52998 | 24.40379 | 24438 ft | 411 kts | 289° |
| 2026-05-07 20:33 | 37.53887 | 24.36957 | 24862 ft | 411 kts | 289° |
| 2026-05-07 20:33 | 37.54880 | 24.33640 | 25301 ft | 409 kts | 296° |
| 2026-05-07 20:33 | 37.56345 | 24.30573 | 25722 ft | 410 kts | 306° |
| 2026-05-07 20:34 | 37.58259 | 24.27911 | 26139 ft | 411 kts | 316° |
| 2026-05-07 20:34 | 37.60536 | 24.25710 | 26526 ft | 414 kts | 323° |
| 2026-05-07 20:34 | 37.62907 | 24.23652 | 26902 ft | 414 kts | 323° |
| 2026-05-07 20:34 | 37.65284 | 24.21592 | 27262 ft | 415 kts | 322° |
| 2026-05-07 20:35 | 37.67661 | 24.19529 | 27611 ft | 415 kts | 322° |
| 2026-05-07 20:35 | 37.70047 | 24.17460 | 27947 ft | 417 kts | 322° |
| 2026-05-07 20:35 | 37.72440 | 24.15385 | 28268 ft | 418 kts | 322° |
| 2026-05-07 20:35 | 37.74802 | 24.13333 | 28593 ft | 419 kts | 322° |
| 2026-05-07 20:36 | 37.77204 | 24.11243 | 28919 ft | 419 kts | 322° |
| 2026-05-07 20:36 | 37.79601 | 24.09157 | 29364 ft | 417 kts | 322° |
| 2026-05-07 20:36 | 37.81981 | 24.07085 | 29854 ft | 414 kts | 322° |
| 2026-05-07 20:36 | 37.84347 | 24.05024 | 30303 ft | 412 kts | 321° |
| 2026-05-07 20:37 | 37.86697 | 24.02974 | 30689 ft | 409 kts | 321° |
| 2026-05-07 20:37 | 37.89035 | 24.00932 | 31085 ft | 407 kts | 321° |
| 2026-05-07 20:37 | 37.91355 | 23.98906 | 31485 ft | 404 kts | 321° |
| 2026-05-07 20:37 | 37.93660 | 23.96892 | 31892 ft | 402 kts | 321° |
| 2026-05-07 20:38 | 37.95925 | 23.94913 | 32311 ft | 399 kts | 321° |
| 2026-05-07 20:38 | 37.98193 | 23.92927 | 32746 ft | 395 kts | 320° |
| 2026-05-07 20:38 | 38.00443 | 23.90955 | 33178 ft | 391 kts | 320° |
| 2026-05-07 20:38 | 38.02675 | 23.88994 | 33601 ft | 388 kts | 320° |
| 2026-05-07 20:39 | 38.04887 | 23.87049 | 34039 ft | 386 kts | 320° |
| 2026-05-07 20:39 | 38.07086 | 23.85119 | 34410 ft | 383 kts | 320° |
| 2026-05-07 20:39 | 38.09270 | 23.83204 | 34767 ft | 381 kts | 320° |
| 2026-05-07 20:39 | 38.11444 | 23.81294 | 35092 ft | 379 kts | 320° |
| 2026-05-07 20:40 | 38.13576 | 23.79417 | 35386 ft | 378 kts | 320° |
| 2026-05-07 20:40 | 38.15814 | 23.77652 | 35651 ft | 382 kts | 328° |
| 2026-05-07 20:40 | 38.18311 | 23.76409 | 35898 ft | 390 kts | 338° |
| 2026-05-07 20:40 | 38.21006 | 23.75777 | 36113 ft | 398 kts | 345° |
| 2026-05-07 20:41 | 38.23768 | 23.75375 | 36158 ft | 400 kts | 345° |
| 2026-05-07 20:41 | 38.29297 | 23.74584 | 36151 ft | 401 kts | 345° |
| 2026-05-07 20:42 | 38.34845 | 23.73793 | 36147 ft | 401 kts | 345° |
| 2026-05-07 20:42 | 38.40358 | 23.72998 | 36150 ft | 401 kts | 345° |
| 2026-05-07 20:43 | 38.45908 | 23.72189 | 36141 ft | 401 kts | 345° |
| 2026-05-07 20:43 | 38.51453 | 23.71374 | 36145 ft | 402 kts | 345° |
| 2026-05-07 20:44 | 38.57007 | 23.70564 | 36143 ft | 402 kts | 345° |
| 2026-05-07 20:44 | 38.62563 | 23.69751 | 36140 ft | 402 kts | 345° |
| 2026-05-07 20:45 | 38.68079 | 23.68944 | 36156 ft | 402 kts | 344° |
| 2026-05-07 20:45 | 38.73630 | 23.68135 | 36148 ft | 402 kts | 344° |
| 2026-05-07 20:46 | 38.79184 | 23.67318 | 36136 ft | 402 kts | 344° |
| 2026-05-07 20:46 | 38.84738 | 23.66507 | 36133 ft | 402 kts | 344° |
| 2026-05-07 20:47 | 38.90255 | 23.65696 | 36138 ft | 402 kts | 344° |
| 2026-05-07 20:47 | 38.95814 | 23.64876 | 36117 ft | 402 kts | 344° |
| 2026-05-07 20:48 | 39.01377 | 23.64052 | 36101 ft | 403 kts | 344° |
| 2026-05-07 20:48 | 39.06944 | 23.63232 | 36092 ft | 403 kts | 344° |
| 2026-05-07 20:49 | 39.12515 | 23.62410 | 36102 ft | 403 kts | 344° |
| 2026-05-07 20:49 | 39.18011 | 23.61444 | 36093 ft | 395 kts | 337° |
| 2026-05-07 20:50 | 39.23132 | 23.59170 | 36122 ft | 388 kts | 331° |
| 2026-05-07 20:50 | 39.28193 | 23.56721 | 36124 ft | 389 kts | 331° |
| 2026-05-07 20:51 | 39.33260 | 23.54272 | 36130 ft | 389 kts | 331° |
| 2026-05-07 20:51 | 39.38335 | 23.51817 | 36128 ft | 389 kts | 331° |
| 2026-05-07 20:52 | 39.43375 | 23.49372 | 36134 ft | 390 kts | 331° |
| 2026-05-07 20:52 | 39.48453 | 23.46906 | 36132 ft | 390 kts | 331° |
| 2026-05-07 20:53 | 39.53540 | 23.44443 | 36134 ft | 390 kts | 331° |
| 2026-05-07 20:53 | 39.58627 | 23.41979 | 36153 ft | 390 kts | 331° |
| 2026-05-07 20:54 | 39.63670 | 23.39534 | 36160 ft | 390 kts | 331° |
| 2026-05-07 20:54 | 39.68745 | 23.37067 | 36147 ft | 389 kts | 330° |
| 2026-05-07 20:55 | 39.73811 | 23.34587 | 36135 ft | 389 kts | 330° |
| 2026-05-07 20:55 | 39.78880 | 23.32111 | 36161 ft | 389 kts | 330° |
| 2026-05-07 20:56 | 39.83906 | 23.29652 | 36165 ft | 388 kts | 330° |
| 2026-05-07 20:56 | 39.88950 | 23.27178 | 36146 ft | 387 kts | 330° |
| 2026-05-07 20:57 | 39.93984 | 23.24699 | 36142 ft | 386 kts | 330° |
| 2026-05-07 20:57 | 39.99012 | 23.22227 | 36135 ft | 386 kts | 330° |
| 2026-05-07 20:58 | 40.04037 | 23.19750 | 36142 ft | 386 kts | 330° |
| 2026-05-07 20:58 | 40.09025 | 23.17290 | 36135 ft | 386 kts | 330° |
| 2026-05-07 20:59 | 40.14048 | 23.14823 | 36131 ft | 386 kts | 330° |
| 2026-05-07 20:59 | 40.19062 | 23.12340 | 36126 ft | 385 kts | 330° |
| 2026-05-07 21:00 | 40.24074 | 23.09853 | 36138 ft | 385 kts | 329° |
| 2026-05-07 21:00 | 40.29096 | 23.07358 | 36114 ft | 387 kts | 329° |
| 2026-05-07 21:01 | 40.34095 | 23.04864 | 36108 ft | 387 kts | 329° |
| 2026-05-07 21:01 | 40.39135 | 23.02346 | 36104 ft | 388 kts | 329° |
| 2026-05-07 21:02 | 40.44193 | 22.99831 | 36103 ft | 389 kts | 329° |
| 2026-05-07 21:02 | 40.49000 | 22.96814 | 36104 ft | 381 kts | 323° |
| 2026-05-07 21:03 | 40.53648 | 22.93566 | 36104 ft | 381 kts | 323° |
| 2026-05-07 21:03 | 40.58321 | 22.90277 | 36102 ft | 381 kts | 323° |
| 2026-05-07 21:04 | 40.62989 | 22.86986 | 36099 ft | 381 kts | 323° |
| 2026-05-07 21:04 | 40.67662 | 22.83699 | 36101 ft | 381 kts | 323° |
| 2026-05-07 21:05 | 40.72306 | 22.80429 | 36122 ft | 382 kts | 323° |
| 2026-05-07 21:05 | 40.77000 | 22.77133 | 36109 ft | 382 kts | 323° |
| 2026-05-07 21:06 | 40.81700 | 22.73820 | 36099 ft | 384 kts | 323° |
| 2026-05-07 21:06 | 40.86411 | 22.70486 | 36098 ft | 385 kts | 323° |
| 2026-05-07 21:07 | 40.91135 | 22.67143 | 36100 ft | 385 kts | 323° |
| 2026-05-07 21:07 | 40.95832 | 22.63820 | 36126 ft | 385 kts | 323° |
| 2026-05-07 21:08 | 41.00552 | 22.60472 | 36119 ft | 385 kts | 323° |
| 2026-05-07 21:08 | 41.05270 | 22.57114 | 36119 ft | 385 kts | 322° |
| 2026-05-07 21:09 | 41.09988 | 22.53746 | 36125 ft | 385 kts | 323° |
| 2026-05-07 21:09 | 41.14473 | 22.50020 | 36122 ft | 375 kts | 314° |
| 2026-05-07 21:10 | 41.18506 | 22.45705 | 36144 ft | 375 kts | 314° |
| 2026-05-07 21:10 | 41.22578 | 22.41357 | 36130 ft | 376 kts | 313° |
| 2026-05-07 21:11 | 41.26663 | 22.36998 | 36119 ft | 377 kts | 314° |
| 2026-05-07 21:11 | 41.32797 | 22.30437 | 36116 ft | 378 kts | 313° |
| 2026-05-07 21:12 | 41.36863 | 22.26073 | 36123 ft | 378 kts | 313° |
| 2026-05-07 21:12 | 41.40958 | 22.21669 | 36124 ft | 378 kts | 313° |
| 2026-05-07 21:13 | 41.45046 | 22.17267 | 36133 ft | 378 kts | 313° |
| 2026-05-07 21:13 | 41.49138 | 22.12854 | 36134 ft | 378 kts | 313° |
| 2026-05-07 21:14 | 41.53210 | 22.08454 | 36104 ft | 380 kts | 313° |
| 2026-05-07 21:14 | 41.57320 | 22.04006 | 36098 ft | 381 kts | 313° |
| 2026-05-07 21:15 | 41.61437 | 21.99539 | 36100 ft | 381 kts | 313° |
| 2026-05-07 21:15 | 41.65557 | 21.95065 | 36110 ft | 382 kts | 313° |
| 2026-05-07 21:16 | 41.69652 | 21.90609 | 36131 ft | 382 kts | 313° |
| 2026-05-07 21:16 | 41.73782 | 21.86111 | 36129 ft | 383 kts | 313° |
| 2026-05-07 21:17 | 41.77916 | 21.81593 | 36123 ft | 384 kts | 313° |
| 2026-05-07 21:17 | 41.82056 | 21.77064 | 36135 ft | 385 kts | 312° |
| 2026-05-07 21:18 | 41.86210 | 21.72516 | 36129 ft | 386 kts | 312° |
| 2026-05-07 21:18 | 41.90349 | 21.67978 | 36128 ft | 387 kts | 312° |
| 2026-05-07 21:19 | 41.94523 | 21.63404 | 36145 ft | 388 kts | 313° |
| 2026-05-07 21:19 | 41.98703 | 21.58808 | 36132 ft | 389 kts | 313° |
| 2026-05-07 21:20 | 42.02895 | 21.54184 | 36104 ft | 390 kts | 313° |
| 2026-05-07 21:20 | 42.07091 | 21.49537 | 36111 ft | 391 kts | 313° |
| 2026-05-07 21:21 | 42.11264 | 21.44913 | 36114 ft | 391 kts | 313° |
| 2026-05-07 21:21 | 42.15449 | 21.40229 | 36114 ft | 389 kts | 310° |
| 2026-05-07 21:22 | 42.19013 | 21.34861 | 36119 ft | 384 kts | 304° |
| 2026-05-07 21:22 | 42.22479 | 21.29368 | 36115 ft | 386 kts | 305° |
| 2026-05-07 21:23 | 42.25942 | 21.23881 | 36104 ft | 388 kts | 305° |
| 2026-05-07 21:23 | 42.29439 | 21.18323 | 36109 ft | 389 kts | 305° |
| 2026-05-07 21:24 | 42.32935 | 21.12744 | 36132 ft | 390 kts | 305° |
| 2026-05-07 21:24 | 42.36448 | 21.07136 | 36110 ft | 392 kts | 305° |
| 2026-05-07 21:25 | 42.39949 | 21.01536 | 36112 ft | 393 kts | 305° |
| 2026-05-07 21:25 | 42.43487 | 20.95868 | 36126 ft | 394 kts | 304° |
| 2026-05-07 21:26 | 42.47025 | 20.90183 | 36127 ft | 395 kts | 304° |
| 2026-05-07 21:26 | 42.50569 | 20.84478 | 36120 ft | 397 kts | 305° |
| 2026-05-07 21:27 | 42.54126 | 20.78746 | 36123 ft | 398 kts | 305° |
| 2026-05-07 21:27 | 42.57673 | 20.73016 | 36110 ft | 400 kts | 305° |
| 2026-05-07 21:28 | 42.61259 | 20.67229 | 36108 ft | 401 kts | 305° |
| 2026-05-07 21:28 | 42.64847 | 20.61407 | 36100 ft | 402 kts | 305° |
| 2026-05-07 21:29 | 42.68432 | 20.55574 | 36101 ft | 403 kts | 305° |
| 2026-05-07 21:29 | 42.71421 | 20.50721 | 36104 ft | 403 kts | 305° |
| 2026-05-07 21:30 | 42.75593 | 20.43914 | 36144 ft | 403 kts | 305° |
| 2026-05-07 21:30 | 42.79184 | 20.38032 | 36115 ft | 404 kts | 305° |
| 2026-05-07 21:31 | 42.82176 | 20.33130 | 36118 ft | 406 kts | 305° |
| 2026-05-07 21:31 | 42.86249 | 20.27718 | 36117 ft | 412 kts | 313° |
| 2026-05-07 21:32 | 42.91249 | 20.21721 | 36114 ft | 412 kts | 313° |
| 2026-05-07 21:32 | 42.94848 | 20.17381 | 36116 ft | 412 kts | 313° |
| 2026-05-07 21:33 | 42.99109 | 20.12235 | 36131 ft | 412 kts | 313° |
| 2026-05-07 21:33 | 43.03407 | 20.07029 | 36129 ft | 413 kts | 313° |
| 2026-05-07 21:34 | 43.07715 | 20.01817 | 36131 ft | 414 kts | 313° |
| 2026-05-07 21:34 | 43.12022 | 19.96598 | 36131 ft | 414 kts | 313° |
| 2026-05-07 21:35 | 43.16325 | 19.91373 | 36131 ft | 414 kts | 313° |
| 2026-05-07 21:35 | 43.20605 | 19.86170 | 36131 ft | 414 kts | 313° |
| 2026-05-07 21:36 | 43.24903 | 19.80927 | 36141 ft | 413 kts | 313° |
| 2026-05-07 21:36 | 43.29197 | 19.75675 | 36149 ft | 414 kts | 313° |
| 2026-05-07 21:37 | 43.33501 | 19.70412 | 36136 ft | 414 kts | 313° |
| 2026-05-07 21:37 | 43.37775 | 19.65185 | 36130 ft | 414 kts | 313° |
| 2026-05-07 21:38 | 43.42071 | 19.59907 | 36122 ft | 414 kts | 312° |
| 2026-05-07 21:38 | 43.46355 | 19.54624 | 36145 ft | 414 kts | 312° |
| 2026-05-07 21:39 | 43.50641 | 19.49322 | 36150 ft | 414 kts | 312° |
| 2026-05-07 21:39 | 43.54895 | 19.44051 | 36141 ft | 414 kts | 312° |
| 2026-05-07 21:40 | 43.59173 | 19.38731 | 36132 ft | 414 kts | 312° |
| 2026-05-07 21:40 | 43.63451 | 19.33404 | 36125 ft | 414 kts | 311° |
| 2026-05-07 21:41 | 43.67730 | 19.28080 | 36121 ft | 414 kts | 311° |
| 2026-05-07 21:41 | 43.72012 | 19.22736 | 36113 ft | 415 kts | 311° |
| 2026-05-07 21:42 | 43.76261 | 19.17425 | 36121 ft | 414 kts | 311° |
| 2026-05-07 21:42 | 43.80545 | 19.12066 | 36118 ft | 415 kts | 311° |
| 2026-05-07 21:43 | 43.84828 | 19.06706 | 36113 ft | 415 kts | 311° |
| 2026-05-07 21:43 | 43.89093 | 19.01343 | 36116 ft | 416 kts | 311° |
| 2026-05-07 21:44 | 43.93375 | 18.95933 | 36114 ft | 416 kts | 311° |
| 2026-05-07 21:44 | 43.97664 | 18.90518 | 36103 ft | 416 kts | 311° |
| 2026-05-07 21:45 | 44.01922 | 18.85137 | 36123 ft | 416 kts | 311° |
| 2026-05-07 21:45 | 44.06208 | 18.79708 | 36144 ft | 416 kts | 311° |
| 2026-05-07 21:46 | 44.10490 | 18.74264 | 36126 ft | 416 kts | 311° |
| 2026-05-07 21:46 | 44.14744 | 18.68842 | 36119 ft | 416 kts | 311° |
| 2026-05-07 21:47 | 44.19032 | 18.63383 | 36120 ft | 416 kts | 311° |
| 2026-05-07 21:47 | 44.23280 | 18.57958 | 36116 ft | 416 kts | 310° |
| 2026-05-07 21:48 | 44.27553 | 18.52488 | 36120 ft | 417 kts | 310° |
| 2026-05-07 21:48 | 44.31826 | 18.46998 | 36105 ft | 417 kts | 310° |
| 2026-05-07 21:49 | 44.36077 | 18.41533 | 36101 ft | 417 kts | 310° |
| 2026-05-07 21:49 | 44.40352 | 18.36033 | 36095 ft | 417 kts | 310° |
| 2026-05-07 21:50 | 44.44616 | 18.30525 | 36096 ft | 417 kts | 310° |
| 2026-05-07 21:50 | 44.48880 | 18.24995 | 36100 ft | 418 kts | 310° |
| 2026-05-07 21:51 | 44.53150 | 18.19453 | 36097 ft | 419 kts | 311° |
| 2026-05-07 21:51 | 44.57415 | 18.13924 | 36075 ft | 420 kts | 311° |
| 2026-05-07 21:52 | 44.61689 | 18.08357 | 36075 ft | 420 kts | 310° |
| 2026-05-07 21:52 | 44.65987 | 18.02748 | 36086 ft | 421 kts | 311° |
| 2026-05-07 21:53 | 44.70255 | 17.97172 | 36086 ft | 421 kts | 310° |
| 2026-05-07 21:53 | 44.74547 | 17.91541 | 36093 ft | 421 kts | 310° |
| 2026-05-07 21:54 | 44.78845 | 17.85899 | 36092 ft | 422 kts | 311° |
| 2026-05-07 21:54 | 44.83109 | 17.80285 | 36082 ft | 423 kts | 311° |
| 2026-05-07 21:55 | 44.87413 | 17.74613 | 36085 ft | 423 kts | 311° |